sensor_id;sensor_type;location;lat;lon;timestamp;temperature;humidity
24049;DHT22;12250;50.956;4.746;2023-05-25T00:02:02;10.10;99.90
24049;DHT22;12250;50.956;4.746;2023-05-25T00:04:32;10.10;99.90
24049;DHT22;12250;50.956;4.746;2023-05-25T00:07:02;10.10;99.90
24049;DHT22;12250;50.956;4.746;2023-05-25T00:09:28;10.20;99.90
24049;DHT22;12250;50.956;4.746;2023-05-25T00:11:54;10.20;99.90
24049;DHT22;12250;50.956;4.746;2023-05-25T00:14:20;10.30;99.90
24049;DHT22;12250;50.956;4.746;2023-05-25T00:16:46;10.30;99.90
24049;DHT22;12250;50.956;4.746;2023-05-25T00:19:13;10.30;99.90
24049;DHT22;12250;50.956;4.746;2023-05-25T00:21:40;10.20;99.90
24049;DHT22;12250;50.956;4.746;2023-05-25T00:24:06;10.10;99.90
24049;DHT22;12250;50.956;4.746;2023-05-25T00:26:33;10.10;99.90
24049;DHT22;12250;50.956;4.746;2023-05-25T00:28:58;10.00;99.90
24049;DHT22;12250;50.956;4.746;2023-05-25T00:31:25;9.90;99.90
24049;DHT22;12250;50.956;4.746;2023-05-25T00:33:52;9.80;99.90
24049;DHT22;12250;50.956;4.746;2023-05-25T00:36:17;9.80;99.90
24049;DHT22;12250;50.956;4.746;2023-05-25T00:38:43;9.80;99.90
24049;DHT22;12250;50.956;4.746;2023-05-25T00:41:09;9.80;99.90
24049;DHT22;12250;50.956;4.746;2023-05-25T00:43:35;9.70;99.90
24049;DHT22;12250;50.956;4.746;2023-05-25T00:46:01;9.70;99.90
24049;DHT22;12250;50.956;4.746;2023-05-25T00:48:27;9.70;99.90
24049;DHT22;12250;50.956;4.746;2023-05-25T00:50:56;9.70;99.90
24049;DHT22;12250;50.956;4.746;2023-05-25T00:53:24;9.70;99.90
24049;DHT22;12250;50.956;4.746;2023-05-25T00:56:09;9.60;99.90
24049;DHT22;12250;50.956;4.746;2023-05-25T00:58:39;9.60;99.90
24049;DHT22;12250;50.956;4.746;2023-05-25T01:01:08;9.60;99.90
24049;DHT22;12250;50.956;4.746;2023-05-25T01:03:37;9.70;99.90
24049;DHT22;12250;50.956;4.746;2023-05-25T01:06:10;9.70;99.90
24049;DHT22;12250;50.956;4.746;2023-05-25T01:08:37;9.70;99.90
24049;DHT22;12250;50.956;4.746;2023-05-25T01:11:05;9.60;99.90
24049;DHT22;12250;50.956;4.746;2023-05-25T01:13:33;9.60;99.90
24049;DHT22;12250;50.956;4.746;2023-05-25T01:15:59;9.50;99.90
24049;DHT22;12250;50.956;4.746;2023-05-25T01:18:25;9.50;99.90
24049;DHT22;12250;50.956;4.746;2023-05-25T01:23:25;9.30;99.90
24049;DHT22;12250;50.956;4.746;2023-05-25T01:25:58;9.30;99.90
24049;DHT22;12250;50.956;4.746;2023-05-25T01:28:29;9.30;99.90
24049;DHT22;12250;50.956;4.746;2023-05-25T01:30:55;9.20;99.90
24049;DHT22;12250;50.956;4.746;2023-05-25T01:33:21;9.20;99.90
24049;DHT22;12250;50.956;4.746;2023-05-25T01:35:48;9.10;99.90
24049;DHT22;12250;50.956;4.746;2023-05-25T01:38:16;9.10;99.90
24049;DHT22;12250;50.956;4.746;2023-05-25T01:40:42;9.00;99.90
24049;DHT22;12250;50.956;4.746;2023-05-25T01:43:08;9.10;99.90
24049;DHT22;12250;50.956;4.746;2023-05-25T01:45:34;9.10;99.90
24049;DHT22;12250;50.956;4.746;2023-05-25T01:48:29;9.10;99.90
24049;DHT22;12250;50.956;4.746;2023-05-25T01:51:02;9.10;99.90
24049;DHT22;12250;50.956;4.746;2023-05-25T01:53:33;9.10;99.90
24049;DHT22;12250;50.956;4.746;2023-05-25T01:56:06;9.00;99.90
24049;DHT22;12250;50.956;4.746;2023-05-25T01:58:42;9.00;99.90
24049;DHT22;12250;50.956;4.746;2023-05-25T02:01:09;9.00;99.90
24049;DHT22;12250;50.956;4.746;2023-05-25T02:03:37;8.90;99.90
24049;DHT22;12250;50.956;4.746;2023-05-25T02:06:03;8.90;99.90
24049;DHT22;12250;50.956;4.746;2023-05-25T02:08:28;8.90;99.90
24049;DHT22;12250;50.956;4.746;2023-05-25T02:10:54;8.90;99.90
24049;DHT22;12250;50.956;4.746;2023-05-25T02:13:19;9.00;99.90
24049;DHT22;12250;50.956;4.746;2023-05-25T02:15:45;8.90;99.90
24049;DHT22;12250;50.956;4.746;2023-05-25T02:18:11;8.90;99.90
24049;DHT22;12250;50.956;4.746;2023-05-25T02:20:38;8.90;99.90
24049;DHT22;12250;50.956;4.746;2023-05-25T02:23:04;8.80;99.90
24049;DHT22;12250;50.956;4.746;2023-05-25T02:25:29;8.70;99.90
24049;DHT22;12250;50.956;4.746;2023-05-25T02:27:55;8.70;99.90
24049;DHT22;12250;50.956;4.746;2023-05-25T02:30:20;8.70;99.90
24049;DHT22;12250;50.956;4.746;2023-05-25T02:32:46;8.70;99.90
24049;DHT22;12250;50.956;4.746;2023-05-25T02:35:12;8.70;99.90
24049;DHT22;12250;50.956;4.746;2023-05-25T02:37:38;8.70;99.90
24049;DHT22;12250;50.956;4.746;2023-05-25T02:40:04;8.60;99.90
24049;DHT22;12250;50.956;4.746;2023-05-25T02:42:30;8.50;99.90
24049;DHT22;12250;50.956;4.746;2023-05-25T02:44:56;8.60;99.90
24049;DHT22;12250;50.956;4.746;2023-05-25T02:47:21;8.50;99.90
24049;DHT22;12250;50.956;4.746;2023-05-25T02:49:47;8.60;99.90
24049;DHT22;12250;50.956;4.746;2023-05-25T02:52:12;8.50;99.90
24049;DHT22;12250;50.956;4.746;2023-05-25T02:54:38;8.50;99.90
24049;DHT22;12250;50.956;4.746;2023-05-25T02:57:04;8.60;99.90
24049;DHT22;12250;50.956;4.746;2023-05-25T02:59:30;8.50;99.90
24049;DHT22;12250;50.956;4.746;2023-05-25T03:01:57;8.50;99.90
24049;DHT22;12250;50.956;4.746;2023-05-25T03:04:23;8.50;99.90
24049;DHT22;12250;50.956;4.746;2023-05-25T03:06:48;8.60;99.90
24049;DHT22;12250;50.956;4.746;2023-05-25T03:09:14;8.50;99.90
24049;DHT22;12250;50.956;4.746;2023-05-25T03:11:40;8.50;99.90
24049;DHT22;12250;50.956;4.746;2023-05-25T03:14:05;8.60;99.90
24049;DHT22;12250;50.956;4.746;2023-05-25T03:16:31;8.60;99.90
24049;DHT22;12250;50.956;4.746;2023-05-25T03:19:01;8.70;99.90
24049;DHT22;12250;50.956;4.746;2023-05-25T03:21:27;8.70;99.90
24049;DHT22;12250;50.956;4.746;2023-05-25T03:23:52;8.70;99.90
24049;DHT22;12250;50.956;4.746;2023-05-25T03:26:18;8.70;99.90
24049;DHT22;12250;50.956;4.746;2023-05-25T03:28:43;8.70;99.90
24049;DHT22;12250;50.956;4.746;2023-05-25T03:31:09;8.60;99.90
24049;DHT22;12250;50.956;4.746;2023-05-25T03:33:36;8.60;99.90
24049;DHT22;12250;50.956;4.746;2023-05-25T03:36:08;8.50;99.90
24049;DHT22;12250;50.956;4.746;2023-05-25T03:38:37;8.40;99.90
24049;DHT22;12250;50.956;4.746;2023-05-25T03:41:03;8.40;99.90
24049;DHT22;12250;50.956;4.746;2023-05-25T03:43:29;8.40;99.90
24049;DHT22;12250;50.956;4.746;2023-05-25T03:45:55;8.40;99.90
24049;DHT22;12250;50.956;4.746;2023-05-25T03:48:20;8.40;99.90
24049;DHT22;12250;50.956;4.746;2023-05-25T03:50:46;8.40;99.90
24049;DHT22;12250;50.956;4.746;2023-05-25T03:53:11;8.50;99.90
24049;DHT22;12250;50.956;4.746;2023-05-25T03:55:37;8.50;99.90
24049;DHT22;12250;50.956;4.746;2023-05-25T03:58:02;8.60;99.90
24049;DHT22;12250;50.956;4.746;2023-05-25T04:00:28;8.70;99.90
24049;DHT22;12250;50.956;4.746;2023-05-25T04:02:54;8.70;99.90
24049;DHT22;12250;50.956;4.746;2023-05-25T04:05:21;8.70;99.90
24049;DHT22;12250;50.956;4.746;2023-05-25T04:07:46;8.70;99.90
24049;DHT22;12250;50.956;4.746;2023-05-25T04:10:12;8.70;99.90
24049;DHT22;12250;50.956;4.746;2023-05-25T04:12:38;8.70;99.90
24049;DHT22;12250;50.956;4.746;2023-05-25T04:15:04;8.70;99.90
24049;DHT22;12250;50.956;4.746;2023-05-25T04:17:33;8.70;99.90
24049;DHT22;12250;50.956;4.746;2023-05-25T04:20:00;8.80;99.90
24049;DHT22;12250;50.956;4.746;2023-05-25T04:22:26;8.90;99.90
24049;DHT22;12250;50.956;4.746;2023-05-25T04:24:51;8.90;99.90
24049;DHT22;12250;50.956;4.746;2023-05-25T04:27:17;8.90;99.90
24049;DHT22;12250;50.956;4.746;2023-05-25T04:29:45;9.00;99.90
24049;DHT22;12250;50.956;4.746;2023-05-25T04:32:10;9.00;99.90
24049;DHT22;12250;50.956;4.746;2023-05-25T04:34:38;9.00;99.90
24049;DHT22;12250;50.956;4.746;2023-05-25T04:37:06;9.10;99.90
24049;DHT22;12250;50.956;4.746;2023-05-25T04:39:33;9.10;99.90
24049;DHT22;12250;50.956;4.746;2023-05-25T04:41:59;9.20;99.90
24049;DHT22;12250;50.956;4.746;2023-05-25T04:44:29;9.20;99.90
24049;DHT22;12250;50.956;4.746;2023-05-25T04:46:55;9.20;99.90
24049;DHT22;12250;50.956;4.746;2023-05-25T04:49:21;9.20;99.90
24049;DHT22;12250;50.956;4.746;2023-05-25T04:51:46;9.20;99.90
24049;DHT22;12250;50.956;4.746;2023-05-25T04:54:12;9.30;99.90
24049;DHT22;12250;50.956;4.746;2023-05-25T04:56:38;9.40;99.90
24049;DHT22;12250;50.956;4.746;2023-05-25T04:59:03;9.50;99.90
24049;DHT22;12250;50.956;4.746;2023-05-25T05:01:29;9.50;99.90
24049;DHT22;12250;50.956;4.746;2023-05-25T05:03:55;9.60;99.90
24049;DHT22;12250;50.956;4.746;2023-05-25T05:06:21;9.60;99.90
24049;DHT22;12250;50.956;4.746;2023-05-25T05:08:47;9.60;99.90
24049;DHT22;12250;50.956;4.746;2023-05-25T05:11:12;9.80;99.90
24049;DHT22;12250;50.956;4.746;2023-05-25T05:13:38;9.80;99.90
24049;DHT22;12250;50.956;4.746;2023-05-25T05:16:04;9.90;99.90
24049;DHT22;12250;50.956;4.746;2023-05-25T05:18:29;10.00;99.90
24049;DHT22;12250;50.956;4.746;2023-05-25T05:20:55;10.10;99.90
24049;DHT22;12250;50.956;4.746;2023-05-25T05:23:21;10.10;99.90
24049;DHT22;12250;50.956;4.746;2023-05-25T05:25:46;10.20;99.90
24049;DHT22;12250;50.956;4.746;2023-05-25T05:28:12;10.30;99.90
24049;DHT22;12250;50.956;4.746;2023-05-25T05:30:37;10.30;99.90
24049;DHT22;12250;50.956;4.746;2023-05-25T05:33:03;10.30;99.90
24049;DHT22;12250;50.956;4.746;2023-05-25T05:35:29;10.30;99.90
24049;DHT22;12250;50.956;4.746;2023-05-25T05:37:54;10.30;99.90
24049;DHT22;12250;50.956;4.746;2023-05-25T05:40:20;10.40;99.90
24049;DHT22;12250;50.956;4.746;2023-05-25T05:42:45;10.50;99.90
24049;DHT22;12250;50.956;4.746;2023-05-25T05:45:11;10.60;99.90
24049;DHT22;12250;50.956;4.746;2023-05-25T05:47:37;10.70;99.90
24049;DHT22;12250;50.956;4.746;2023-05-25T05:50:03;10.80;99.90
24049;DHT22;12250;50.956;4.746;2023-05-25T05:52:29;10.90;99.90
24049;DHT22;12250;50.956;4.746;2023-05-25T05:54:54;11.00;99.90
24049;DHT22;12250;50.956;4.746;2023-05-25T05:57:20;11.10;99.90
24049;DHT22;12250;50.956;4.746;2023-05-25T05:59:46;11.20;99.90
24049;DHT22;12250;50.956;4.746;2023-05-25T06:02:11;11.30;99.90
24049;DHT22;12250;50.956;4.746;2023-05-25T06:04:37;11.40;99.90
24049;DHT22;12250;50.956;4.746;2023-05-25T06:07:03;11.50;99.90
24049;DHT22;12250;50.956;4.746;2023-05-25T06:09:28;11.50;99.90
24049;DHT22;12250;50.956;4.746;2023-05-25T06:11:54;11.60;99.90
24049;DHT22;12250;50.956;4.746;2023-05-25T06:14:20;11.70;99.90
24049;DHT22;12250;50.956;4.746;2023-05-25T06:16:45;11.80;99.90
24049;DHT22;12250;50.956;4.746;2023-05-25T06:19:11;12.00;99.90
24049;DHT22;12250;50.956;4.746;2023-05-25T06:21:36;12.10;99.90
24049;DHT22;12250;50.956;4.746;2023-05-25T06:24:03;12.20;99.90
24049;DHT22;12250;50.956;4.746;2023-05-25T06:26:28;12.30;99.90
24049;DHT22;12250;50.956;4.746;2023-05-25T06:28:55;12.30;99.90
24049;DHT22;12250;50.956;4.746;2023-05-25T06:31:21;12.40;99.90
24049;DHT22;12250;50.956;4.746;2023-05-25T06:33:47;12.50;99.90
24049;DHT22;12250;50.956;4.746;2023-05-25T06:36:13;12.60;99.90
24049;DHT22;12250;50.956;4.746;2023-05-25T06:38:39;12.60;99.90
24049;DHT22;12250;50.956;4.746;2023-05-25T06:41:05;12.70;99.90
24049;DHT22;12250;50.956;4.746;2023-05-25T06:43:31;12.80;99.90
24049;DHT22;12250;50.956;4.746;2023-05-25T06:45:57;12.90;99.90
24049;DHT22;12250;50.956;4.746;2023-05-25T06:48:23;12.90;99.90
24049;DHT22;12250;50.956;4.746;2023-05-25T06:50:49;12.90;99.90
24049;DHT22;12250;50.956;4.746;2023-05-25T06:53:15;13.10;99.90
24049;DHT22;12250;50.956;4.746;2023-05-25T06:55:41;13.30;99.90
24049;DHT22;12250;50.956;4.746;2023-05-25T06:58:07;13.50;99.90
24049;DHT22;12250;50.956;4.746;2023-05-25T07:00:33;13.60;99.90
24049;DHT22;12250;50.956;4.746;2023-05-25T07:02:58;13.70;99.90
24049;DHT22;12250;50.956;4.746;2023-05-25T07:05:24;14.00;99.90
24049;DHT22;12250;50.956;4.746;2023-05-25T07:07:50;14.00;99.90
24049;DHT22;12250;50.956;4.746;2023-05-25T07:10:16;14.00;99.90
24049;DHT22;12250;50.956;4.746;2023-05-25T07:12:41;13.90;99.90
24049;DHT22;12250;50.956;4.746;2023-05-25T07:15:08;14.00;99.90
24049;DHT22;12250;50.956;4.746;2023-05-25T07:17:33;14.20;99.90
24049;DHT22;12250;50.956;4.746;2023-05-25T07:20:01;14.30;99.90
24049;DHT22;12250;50.956;4.746;2023-05-25T07:22:26;14.40;99.90
24049;DHT22;12250;50.956;4.746;2023-05-25T07:24:52;14.50;99.90
24049;DHT22;12250;50.956;4.746;2023-05-25T07:27:17;14.50;99.90
24049;DHT22;12250;50.956;4.746;2023-05-25T07:29:44;14.40;99.90
24049;DHT22;12250;50.956;4.746;2023-05-25T07:32:10;14.40;99.90
24049;DHT22;12250;50.956;4.746;2023-05-25T07:34:35;14.50;99.90
24049;DHT22;12250;50.956;4.746;2023-05-25T07:37:01;14.50;99.90
24049;DHT22;12250;50.956;4.746;2023-05-25T07:39:27;14.50;99.90
24049;DHT22;12250;50.956;4.746;2023-05-25T07:41:52;14.80;99.90
24049;DHT22;12250;50.956;4.746;2023-05-25T07:44:18;15.00;99.90
24049;DHT22;12250;50.956;4.746;2023-05-25T07:46:44;15.10;99.90
24049;DHT22;12250;50.956;4.746;2023-05-25T07:49:09;15.20;99.90
24049;DHT22;12250;50.956;4.746;2023-05-25T07:51:43;15.40;99.90
24049;DHT22;12250;50.956;4.746;2023-05-25T07:54:10;15.60;99.90
24049;DHT22;12250;50.956;4.746;2023-05-25T07:56:35;15.70;99.90
24049;DHT22;12250;50.956;4.746;2023-05-25T07:59:01;15.80;99.90
24049;DHT22;12250;50.956;4.746;2023-05-25T08:01:27;15.80;99.90
24049;DHT22;12250;50.956;4.746;2023-05-25T08:03:53;16.30;99.90
24049;DHT22;12250;50.956;4.746;2023-05-25T08:06:19;18.30;99.90
24049;DHT22;12250;50.956;4.746;2023-05-25T08:08:45;20.20;99.90
24049;DHT22;12250;50.956;4.746;2023-05-25T08:11:11;20.50;98.10
24049;DHT22;12250;50.956;4.746;2023-05-25T08:13:37;20.60;96.00
24049;DHT22;12250;50.956;4.746;2023-05-25T08:16:03;22.70;92.40
24049;DHT22;12250;50.956;4.746;2023-05-25T08:18:29;24.70;82.90
24049;DHT22;12250;50.956;4.746;2023-05-25T08:20:56;27.20;73.30
24049;DHT22;12250;50.956;4.746;2023-05-25T08:23:21;28.90;64.30
24049;DHT22;12250;50.956;4.746;2023-05-25T08:25:47;29.90;55.90
24049;DHT22;12250;50.956;4.746;2023-05-25T08:28:13;29.30;55.90
24049;DHT22;12250;50.956;4.746;2023-05-25T08:30:38;28.60;55.90
24049;DHT22;12250;50.956;4.746;2023-05-25T08:33:04;28.80;55.30
24049;DHT22;12250;50.956;4.746;2023-05-25T08:35:31;29.20;55.10
24049;DHT22;12250;50.956;4.746;2023-05-25T08:37:57;30.00;51.50
24049;DHT22;12250;50.956;4.746;2023-05-25T08:40:26;28.20;53.20
24049;DHT22;12250;50.956;4.746;2023-05-25T08:42:54;27.60;54.90
24049;DHT22;12250;50.956;4.746;2023-05-25T08:45:20;29.50;53.10
24049;DHT22;12250;50.956;4.746;2023-05-25T08:47:47;31.00;49.00
24049;DHT22;12250;50.956;4.746;2023-05-25T08:50:13;32.60;47.80
24049;DHT22;12250;50.956;4.746;2023-05-25T08:52:44;30.60;47.30
24049;DHT22;12250;50.956;4.746;2023-05-25T08:55:11;28.00;51.00
24049;DHT22;12250;50.956;4.746;2023-05-25T09:00:15;27.20;54.60
24049;DHT22;12250;50.956;4.746;2023-05-25T09:03:09;28.90;51.70
24049;DHT22;12250;50.956;4.746;2023-05-25T09:05:36;29.20;49.10
24049;DHT22;12250;50.956;4.746;2023-05-25T09:08:04;27.90;51.60
24049;DHT22;12250;50.956;4.746;2023-05-25T09:10:32;27.60;51.40
24049;DHT22;12250;50.956;4.746;2023-05-25T09:12:59;28.90;51.00
24049;DHT22;12250;50.956;4.746;2023-05-25T09:15:25;31.40;48.40
24049;DHT22;12250;50.956;4.746;2023-05-25T09:17:50;33.00;43.80
24049;DHT22;12250;50.956;4.746;2023-05-25T09:20:17;33.30;42.20
24049;DHT22;12250;50.956;4.746;2023-05-25T09:22:43;31.30;44.10
24049;DHT22;12250;50.956;4.746;2023-05-25T09:25:10;30.30;46.30
24049;DHT22;12250;50.956;4.746;2023-05-25T09:27:37;32.20;44.10
24049;DHT22;12250;50.956;4.746;2023-05-25T09:30:04;34.20;41.40
24049;DHT22;12250;50.956;4.746;2023-05-25T09:32:30;36.40;39.60
24049;DHT22;12250;50.956;4.746;2023-05-25T09:35:05;38.20;35.60
24049;DHT22;12250;50.956;4.746;2023-05-25T09:37:31;38.60;32.80
24049;DHT22;12250;50.956;4.746;2023-05-25T09:39:57;37.50;32.80
24049;DHT22;12250;50.956;4.746;2023-05-25T09:42:23;34.50;34.30
24049;DHT22;12250;50.956;4.746;2023-05-25T09:44:48;31.90;38.50
24049;DHT22;12250;50.956;4.746;2023-05-25T09:47:14;29.30;42.10
24049;DHT22;12250;50.956;4.746;2023-05-25T09:49:41;27.40;46.10
24049;DHT22;12250;50.956;4.746;2023-05-25T09:52:10;26.50;48.10
24049;DHT22;12250;50.956;4.746;2023-05-25T09:54:36;26.30;48.20
24049;DHT22;12250;50.956;4.746;2023-05-25T09:57:03;26.00;50.20
24049;DHT22;12250;50.956;4.746;2023-05-25T09:59:30;25.60;50.90
24049;DHT22;12250;50.956;4.746;2023-05-25T10:01:56;24.90;51.70
24049;DHT22;12250;50.956;4.746;2023-05-25T10:04:22;26.60;49.70
24049;DHT22;12250;50.956;4.746;2023-05-25T10:06:48;27.70;48.50
24049;DHT22;12250;50.956;4.746;2023-05-25T10:09:18;27.70;48.30
24049;DHT22;12250;50.956;4.746;2023-05-25T10:11:44;26.60;48.50
24049;DHT22;12250;50.956;4.746;2023-05-25T10:14:13;25.70;49.70
24049;DHT22;12250;50.956;4.746;2023-05-25T10:16:40;24.30;52.60
24049;DHT22;12250;50.956;4.746;2023-05-25T10:19:12;23.60;54.80
24049;DHT22;12250;50.956;4.746;2023-05-25T10:21:52;24.10;54.90
24049;DHT22;12250;50.956;4.746;2023-05-25T10:24:37;27.20;50.00
24049;DHT22;12250;50.956;4.746;2023-05-25T10:27:05;28.00;47.90
24049;DHT22;12250;50.956;4.746;2023-05-25T10:29:33;27.90;47.30
24049;DHT22;12250;50.956;4.746;2023-05-25T10:32:00;27.50;48.20
24049;DHT22;12250;50.956;4.746;2023-05-25T10:34:26;26.40;49.80
24049;DHT22;12250;50.956;4.746;2023-05-25T10:36:53;25.60;50.30
24049;DHT22;12250;50.956;4.746;2023-05-25T10:39:20;24.80;52.20
24049;DHT22;12250;50.956;4.746;2023-05-25T10:41:46;24.00;54.00
24049;DHT22;12250;50.956;4.746;2023-05-25T10:44:12;26.50;50.30
24049;DHT22;12250;50.956;4.746;2023-05-25T10:46:40;27.30;48.70
24049;DHT22;12250;50.956;4.746;2023-05-25T10:49:06;26.10;48.90
24049;DHT22;12250;50.956;4.746;2023-05-25T10:51:39;24.80;51.00
24049;DHT22;12250;50.956;4.746;2023-05-25T10:54:05;23.70;53.90
24049;DHT22;12250;50.956;4.746;2023-05-25T10:56:31;23.60;54.90
24049;DHT22;12250;50.956;4.746;2023-05-25T10:58:57;24.00;54.80
24049;DHT22;12250;50.956;4.746;2023-05-25T11:01:23;23.50;56.10
24049;DHT22;12250;50.956;4.746;2023-05-25T11:06:19;22.80;58.20
24049;DHT22;12250;50.956;4.746;2023-05-25T11:08:57;22.60;58.90
24049;DHT22;12250;50.956;4.746;2023-05-25T11:14:26;24.00;56.70
24049;DHT22;12250;50.956;4.746;2023-05-25T11:17:08;24.90;53.60
24049;DHT22;12250;50.956;4.746;2023-05-25T11:19:41;24.60;54.00
24049;DHT22;12250;50.956;4.746;2023-05-25T11:22:15;24.10;54.20
24049;DHT22;12250;50.956;4.746;2023-05-25T11:24:42;24.50;53.50
24049;DHT22;12250;50.956;4.746;2023-05-25T11:27:10;26.30;52.10
24049;DHT22;12250;50.956;4.746;2023-05-25T11:29:38;27.30;49.80
24049;DHT22;12250;50.956;4.746;2023-05-25T11:32:05;28.40;49.20
24049;DHT22;12250;50.956;4.746;2023-05-25T11:34:35;27.50;47.60
24049;DHT22;12250;50.956;4.746;2023-05-25T11:37:01;26.20;50.90
24049;DHT22;12250;50.956;4.746;2023-05-25T11:39:27;25.00;54.10
24049;DHT22;12250;50.956;4.746;2023-05-25T11:41:55;24.30;55.20
24049;DHT22;12250;50.956;4.746;2023-05-25T11:44:32;25.90;52.70
24049;DHT22;12250;50.956;4.746;2023-05-25T11:47:08;26.50;52.10
24049;DHT22;12250;50.956;4.746;2023-05-25T11:49:41;25.70;51.60
24049;DHT22;12250;50.956;4.746;2023-05-25T11:52:11;25.00;53.80
24049;DHT22;12250;50.956;4.746;2023-05-25T11:54:37;25.00;53.30
24049;DHT22;12250;50.956;4.746;2023-05-25T11:57:22;25.90;52.60
24049;DHT22;12250;50.956;4.746;2023-05-25T11:59:52;26.10;52.70
24049;DHT22;12250;50.956;4.746;2023-05-25T12:02:19;24.80;53.60
24049;DHT22;12250;50.956;4.746;2023-05-25T12:07:21;23.30;57.10
24049;DHT22;12250;50.956;4.746;2023-05-25T12:09:47;23.70;56.40
24049;DHT22;12250;50.956;4.746;2023-05-25T12:12:13;23.80;56.90
24049;DHT22;12250;50.956;4.746;2023-05-25T12:14:48;23.70;57.20
24049;DHT22;12250;50.956;4.746;2023-05-25T12:17:15;22.80;58.70
24049;DHT22;12250;50.956;4.746;2023-05-25T12:19:42;22.40;59.40
24049;DHT22;12250;50.956;4.746;2023-05-25T12:22:08;22.70;60.40
24049;DHT22;12250;50.956;4.746;2023-05-25T12:24:34;23.00;58.00
24049;DHT22;12250;50.956;4.746;2023-05-25T12:27:00;22.80;59.40
24049;DHT22;12250;50.956;4.746;2023-05-25T12:29:27;22.20;59.70
24049;DHT22;12250;50.956;4.746;2023-05-25T12:32:01;22.70;59.90
24049;DHT22;12250;50.956;4.746;2023-05-25T12:34:28;22.80;58.30
24049;DHT22;12250;50.956;4.746;2023-05-25T12:36:55;22.80;58.60
24049;DHT22;12250;50.956;4.746;2023-05-25T12:41:57;22.80;58.20
24049;DHT22;12250;50.956;4.746;2023-05-25T12:46:55;22.80;59.00
24049;DHT22;12250;50.956;4.746;2023-05-25T12:51:51;22.60;62.40
24049;DHT22;12250;50.956;4.746;2023-05-25T12:54:31;22.70;59.20
24049;DHT22;12250;50.956;4.746;2023-05-25T12:56:57;22.40;59.80
24049;DHT22;12250;50.956;4.746;2023-05-25T12:59:22;23.00;60.20
24049;DHT22;12250;50.956;4.746;2023-05-25T13:01:48;22.90;59.60
24049;DHT22;12250;50.956;4.746;2023-05-25T13:04:14;22.80;59.70
24049;DHT22;12250;50.956;4.746;2023-05-25T13:06:39;22.40;60.10
24049;DHT22;12250;50.956;4.746;2023-05-25T13:09:05;22.20;60.00
24049;DHT22;12250;50.956;4.746;2023-05-25T13:11:30;22.20;59.90
24049;DHT22;12250;50.956;4.746;2023-05-25T13:13:56;22.40;62.80
24049;DHT22;12250;50.956;4.746;2023-05-25T13:16:22;22.60;61.10
24049;DHT22;12250;50.956;4.746;2023-05-25T13:18:47;22.80;59.30
24049;DHT22;12250;50.956;4.746;2023-05-25T13:21:13;21.60;61.20
24049;DHT22;12250;50.956;4.746;2023-05-25T13:23:39;21.60;63.10
24049;DHT22;12250;50.956;4.746;2023-05-25T13:26:04;21.50;63.40
24049;DHT22;12250;50.956;4.746;2023-05-25T13:28:30;22.00;62.60
24049;DHT22;12250;50.956;4.746;2023-05-25T13:30:56;22.30;61.20
24049;DHT22;12250;50.956;4.746;2023-05-25T13:33:22;22.20;60.70
24049;DHT22;12250;50.956;4.746;2023-05-25T13:35:47;21.90;61.70
24049;DHT22;12250;50.956;4.746;2023-05-25T13:38:23;21.70;62.70
24049;DHT22;12250;50.956;4.746;2023-05-25T13:40:49;21.70;64.10
24049;DHT22;12250;50.956;4.746;2023-05-25T13:43:14;22.10;64.90
24049;DHT22;12250;50.956;4.746;2023-05-25T13:45:40;22.80;61.70
24049;DHT22;12250;50.956;4.746;2023-05-25T13:48:06;23.00;59.60
24049;DHT22;12250;50.956;4.746;2023-05-25T13:50:32;22.70;59.20
24049;DHT22;12250;50.956;4.746;2023-05-25T13:52:58;22.50;60.40
24049;DHT22;12250;50.956;4.746;2023-05-25T13:55:23;22.40;60.50
24049;DHT22;12250;50.956;4.746;2023-05-25T13:57:49;22.30;61.80
24049;DHT22;12250;50.956;4.746;2023-05-25T14:00:16;22.90;62.00
24049;DHT22;12250;50.956;4.746;2023-05-25T14:02:42;22.90;61.30
24049;DHT22;12250;50.956;4.746;2023-05-25T14:05:08;22.50;60.80
24049;DHT22;12250;50.956;4.746;2023-05-25T14:07:35;21.70;62.00
24049;DHT22;12250;50.956;4.746;2023-05-25T14:10:01;21.70;64.70
24049;DHT22;12250;50.956;4.746;2023-05-25T14:12:27;22.70;64.10
24049;DHT22;12250;50.956;4.746;2023-05-25T14:14:53;23.30;59.10
24049;DHT22;12250;50.956;4.746;2023-05-25T14:17:18;23.20;59.60
24049;DHT22;12250;50.956;4.746;2023-05-25T14:19:44;22.70;59.80
24049;DHT22;12250;50.956;4.746;2023-05-25T14:22:09;22.50;62.00
24049;DHT22;12250;50.956;4.746;2023-05-25T14:24:35;22.90;60.30
24049;DHT22;12250;50.956;4.746;2023-05-25T14:27:01;23.00;59.60
24049;DHT22;12250;50.956;4.746;2023-05-25T14:29:26;23.20;58.80
24049;DHT22;12250;50.956;4.746;2023-05-25T14:31:52;23.10;58.80
24049;DHT22;12250;50.956;4.746;2023-05-25T14:34:17;23.30;58.20
24049;DHT22;12250;50.956;4.746;2023-05-25T14:36:43;23.20;57.50
24049;DHT22;12250;50.956;4.746;2023-05-25T14:39:09;23.20;59.50
24049;DHT22;12250;50.956;4.746;2023-05-25T14:41:34;23.00;58.80
24049;DHT22;12250;50.956;4.746;2023-05-25T14:44:00;22.40;59.20
24049;DHT22;12250;50.956;4.746;2023-05-25T14:46:25;22.40;61.30
24049;DHT22;12250;50.956;4.746;2023-05-25T14:48:51;22.60;61.50
24049;DHT22;12250;50.956;4.746;2023-05-25T14:51:17;22.70;59.60
24049;DHT22;12250;50.956;4.746;2023-05-25T14:53:42;23.20;59.40
24049;DHT22;12250;50.956;4.746;2023-05-25T14:56:09;23.60;57.50
24049;DHT22;12250;50.956;4.746;2023-05-25T14:58:34;23.20;57.90
24049;DHT22;12250;50.956;4.746;2023-05-25T15:01:00;22.70;58.50
24049;DHT22;12250;50.956;4.746;2023-05-25T15:03:26;22.80;61.30
24049;DHT22;12250;50.956;4.746;2023-05-25T15:05:51;22.80;58.70
24049;DHT22;12250;50.956;4.746;2023-05-25T15:08:17;22.40;60.20
24049;DHT22;12250;50.956;4.746;2023-05-25T15:10:42;22.40;59.40
24049;DHT22;12250;50.956;4.746;2023-05-25T15:13:08;22.20;60.00
24049;DHT22;12250;50.956;4.746;2023-05-25T15:15:34;22.20;61.70
24049;DHT22;12250;50.956;4.746;2023-05-25T15:17:59;22.10;63.20
24049;DHT22;12250;50.956;4.746;2023-05-25T15:20:26;21.90;62.20
24049;DHT22;12250;50.956;4.746;2023-05-25T15:22:51;21.50;62.60
24049;DHT22;12250;50.956;4.746;2023-05-25T15:25:18;21.40;63.00
24049;DHT22;12250;50.956;4.746;2023-05-25T15:27:44;21.30;63.50
24049;DHT22;12250;50.956;4.746;2023-05-25T15:30:10;21.50;63.90
24049;DHT22;12250;50.956;4.746;2023-05-25T15:32:35;21.90;61.90
24049;DHT22;12250;50.956;4.746;2023-05-25T15:35:01;22.00;61.00
24049;DHT22;12250;50.956;4.746;2023-05-25T15:37:27;22.10;62.10
24049;DHT22;12250;50.956;4.746;2023-05-25T15:39:53;22.10;62.00
24049;DHT22;12250;50.956;4.746;2023-05-25T15:42:19;22.40;61.90
24049;DHT22;12250;50.956;4.746;2023-05-25T15:44:45;22.40;61.30
24049;DHT22;12250;50.956;4.746;2023-05-25T15:47:10;22.10;60.10
24049;DHT22;12250;50.956;4.746;2023-05-25T15:49:37;21.80;62.40
24049;DHT22;12250;50.956;4.746;2023-05-25T15:52:02;22.30;63.00
24049;DHT22;12250;50.956;4.746;2023-05-25T15:54:28;23.10;60.00